createdAt,value
2019-03-09T00:04:06.318Z,7.83
2019-03-09T00:06:35.653Z,8.53
2019-03-09T00:09:44.280Z,8.13
2019-03-09T00:12:13.646Z,9.00
2019-03-09T00:14:42.954Z,8.50
2019-03-09T00:17:12.511Z,9.90
2019-03-09T00:19:41.812Z,3.63
2019-03-09T00:25:23.832Z,3.87
2019-03-09T00:27:57.669Z,5.90
2019-03-09T00:30:34.723Z,4.57
2019-03-09T00:35:58.586Z,6.67
2019-03-09T00:41:22.100Z,11.80
2019-03-09T00:43:51.603Z,9.73
2019-03-09T00:46:40.419Z,9.37
2019-03-09T00:49:11.256Z,5.63
2019-03-09T00:51:40.818Z,12.00
2019-03-09T00:54:29.264Z,8.50
2019-03-09T01:00:10.078Z,9.37
2019-03-09T01:02:39.376Z,8.57
2019-03-09T01:05:09.465Z,8.03
2019-03-09T01:07:57.652Z,3.60
2019-03-09T01:10:26.960Z,7.23
2019-03-09T01:12:56.309Z,8.77
2019-03-09T01:15:27.128Z,8.00
2019-03-09T01:17:56.439Z,11.40
2019-03-09T01:20:26.006Z,11.43
2019-03-09T01:22:55.317Z,10.73
2019-03-09T01:25:24.677Z,5.13
2019-03-09T01:27:54.055Z,10.77
2019-03-09T01:30:23.537Z,6.67
2019-03-09T01:32:52.818Z,11.27
2019-03-09T01:35:22.134Z,3.43
2019-03-09T01:37:51.438Z,7.90
2019-03-09T01:40:21.390Z,7.63
2019-03-09T01:42:50.684Z,9.70
2019-03-09T01:45:20.294Z,12.57
2019-03-09T01:47:49.600Z,8.50
2019-03-09T01:50:19.179Z,10.63
2019-03-09T01:52:48.510Z,8.33
2019-03-09T01:55:18.206Z,9.67
2019-03-09T01:57:47.471Z,6.30
2019-03-09T02:06:07.678Z,9.53
2019-03-09T02:08:36.981Z,5.93
2019-03-09T02:11:06.402Z,5.03
2019-03-09T02:13:35.677Z,5.70
2019-03-09T02:16:05.377Z,10.10
2019-03-09T02:18:34.678Z,6.90
2019-03-09T02:21:04.417Z,12.13
2019-03-09T02:23:33.682Z,7.50
2019-03-09T02:26:03.185Z,7.03
2019-03-09T02:28:32.492Z,7.60
2019-03-09T02:31:02.067Z,9.17
2019-03-09T02:33:31.372Z,4.03
2019-03-09T02:36:00.719Z,5.23
2019-03-09T02:38:38.017Z,9.37
2019-03-09T02:41:07.316Z,4.80
2019-03-09T02:43:55.545Z,12.77
2019-03-09T02:46:25.086Z,11.70
2019-03-09T02:48:54.416Z,13.50
2019-03-09T02:54:12.395Z,7.70
2019-03-09T02:56:41.672Z,11.10
2019-03-09T02:59:11.025Z,10.10
2019-03-09T03:01:48.761Z,7.27
2019-03-09T03:04:18.181Z,7.10
2019-03-09T03:06:47.552Z,10.87
2019-03-09T03:09:17.147Z,3.43
2019-03-09T03:11:46.471Z,7.37
2019-03-09T03:14:16.074Z,16.77
2019-03-09T03:16:45.349Z,10.93
2019-03-09T03:19:14.876Z,8.70
2019-03-09T03:21:45.394Z,10.03
2019-03-09T03:24:15.150Z,8.20
2019-03-09T03:26:44.473Z,7.13
2019-03-09T03:29:13.783Z,9.67
2019-03-09T03:31:43.127Z,11.63
2019-03-09T03:34:12.413Z,5.57
2019-03-09T03:36:41.682Z,8.93
2019-03-09T03:39:11.200Z,11.70
2019-03-09T03:41:40.577Z,11.00
2019-03-09T03:49:33.537Z,11.20
2019-03-09T03:52:02.822Z,16.67
2019-03-09T03:54:32.257Z,11.27
2019-03-09T03:57:01.526Z,11.83
2019-03-09T03:59:30.915Z,9.93
2019-03-09T04:02:19.184Z,8.73
2019-03-09T04:04:48.494Z,9.53
2019-03-09T04:07:18.136Z,9.97
2019-03-09T04:10:06.573Z,10.77
2019-03-09T04:15:30.891Z,6.53
2019-03-09T04:18:19.247Z,14.17
2019-03-09T04:20:48.537Z,8.53
2019-03-09T04:23:18.121Z,7.77
2019-03-09T04:25:47.390Z,7.57
2019-03-09T04:28:16.935Z,7.90
2019-03-09T04:30:46.256Z,8.43
2019-03-09T04:33:15.801Z,14.90
2019-03-09T04:35:45.068Z,19.03
2019-03-09T04:38:14.587Z,14.10
2019-03-09T04:40:43.856Z,7.07
2019-03-09T04:43:13.192Z,8.63
2019-03-09T04:45:42.510Z,6.73
2019-03-09T04:48:12.144Z,5.17
2019-03-09T04:51:20.740Z,8.77
2019-03-09T04:53:50.497Z,5.70
2019-03-09T04:56:19.781Z,10.40
2019-03-09T05:04:32.780Z,9.87
2019-03-09T05:07:13.203Z,10.90
2019-03-09T05:10:20.552Z,11.53
2019-03-09T05:12:51.381Z,13.33
2019-03-09T05:15:20.686Z,6.83
2019-03-09T05:17:50.047Z,11.60
2019-03-09T05:20:19.391Z,10.60
2019-03-09T05:22:48.963Z,12.70
2019-03-09T05:25:18.277Z,8.80
2019-03-09T05:27:47.744Z,12.87
2019-03-09T05:30:58.490Z,11.97
2019-03-09T05:33:28.576Z,13.93
2019-03-09T05:35:57.897Z,9.67
2019-03-09T05:38:27.295Z,16.77
2019-03-09T05:40:56.578Z,13.60
2019-03-09T05:43:25.989Z,9.43
2019-03-09T05:46:14.355Z,15.20
2019-03-09T05:48:43.662Z,12.90
2019-03-09T05:51:13.263Z,14.20
2019-03-09T05:53:42.559Z,6.13
2019-03-09T05:56:12.036Z,9.57
2019-03-09T05:58:41.421Z,11.37
2019-03-09T06:01:10.830Z,9.77
2019-03-09T06:03:40.107Z,11.40
2019-03-09T06:06:28.424Z,9.90
2019-03-09T06:08:57.959Z,7.80
2019-03-09T06:11:27.292Z,6.93
2019-03-09T06:14:15.632Z,5.27
2019-03-09T06:16:45.192Z,5.37
2019-03-09T06:19:14.472Z,13.10
2019-03-09T06:21:44.195Z,4.80
2019-03-09T06:24:13.515Z,4.17
2019-03-09T06:26:42.910Z,5.57
2019-03-09T06:29:12.201Z,6.03
2019-03-09T06:31:43.874Z,6.00
2019-03-09T06:34:13.216Z,8.37
2019-03-09T06:37:13.260Z,5.87
2019-03-09T06:39:54.324Z,3.17
2019-03-09T06:42:47.151Z,6.60
2019-03-09T06:45:18.233Z,6.27
2019-03-09T06:47:47.524Z,5.50
2019-03-09T06:50:18.475Z,6.37
2019-03-09T06:52:47.835Z,4.50
2019-03-09T06:55:17.271Z,5.27
2019-03-09T06:57:46.575Z,4.03
2019-03-09T07:00:36.050Z,8.07
2019-03-09T07:03:06.192Z,4.80
2019-03-09T07:05:35.492Z,5.43
2019-03-09T07:08:04.915Z,4.80
2019-03-09T07:10:53.140Z,8.03
2019-03-09T07:13:22.434Z,6.57
2019-03-09T07:15:51.888Z,2.80
2019-03-09T07:18:44.484Z,5.17
2019-03-09T07:21:14.003Z,1.83
2019-03-09T07:23:43.319Z,1.47
2019-03-09T07:26:12.655Z,3.47
2019-03-09T07:28:41.955Z,4.73
2019-03-09T07:31:11.272Z,3.20
2019-03-09T07:33:40.586Z,2.80
2019-03-09T07:36:10.175Z,2.47
2019-03-09T07:38:39.472Z,3.43
2019-03-09T07:41:09.001Z,5.50
2019-03-09T07:43:38.304Z,3.20
2019-03-09T07:46:08.029Z,5.47
2019-03-09T07:48:37.480Z,2.20
2019-03-09T07:51:07.190Z,3.13
2019-03-09T07:53:36.667Z,3.80
2019-03-09T07:56:09.112Z,6.90
2019-03-09T07:58:57.383Z,4.03
2019-03-09T08:01:27.984Z,5.13
2019-03-09T08:03:57.478Z,2.93
2019-03-09T08:06:27.305Z,1.87
2019-03-09T08:08:56.569Z,4.90
2019-03-09T08:11:26.143Z,2.37
2019-03-09T08:14:14.483Z,1.40
2019-03-09T08:19:40.422Z,1.30
2019-03-09T08:22:09.712Z,0.80
2019-03-09T08:24:39.082Z,1.03
2019-03-09T08:27:08.412Z,2.37
2019-03-09T08:29:38.651Z,1.50
2019-03-09T08:32:07.959Z,1.77
2019-03-09T08:34:37.482Z,1.20
2019-03-09T08:37:06.862Z,1.23
2019-03-09T08:39:36.310Z,2.70
2019-03-09T08:42:05.606Z,1.13
2019-03-09T08:44:34.903Z,0.87
2019-03-09T08:47:04.209Z,0.67
2019-03-09T08:49:33.033Z,0.73
2019-03-09T08:52:21.418Z,0.73
2019-03-09T08:54:50.804Z,0.60
2019-03-09T08:57:20.126Z,1.07
2019-03-09T08:59:49.417Z,1.27
2019-03-09T09:04:56.291Z,0.60
2019-03-09T09:07:25.572Z,0.60
2019-03-09T09:09:55.053Z,0.70
2019-03-09T09:12:24.331Z,1.47
2019-03-09T09:14:53.913Z,0.50
2019-03-09T09:17:23.213Z,0.30
2019-03-09T09:19:52.850Z,0.43
2019-03-09T09:22:22.124Z,0.50
2019-03-09T09:24:51.480Z,0.40
2019-03-09T09:27:20.764Z,0.50
2019-03-09T09:29:50.197Z,0.53
2019-03-09T09:32:38.458Z,0.40
2019-03-09T09:35:08.913Z,0.40
2019-03-09T09:40:26.609Z,0.80
2019-03-09T09:46:10.259Z,0.30
2019-03-09T09:48:58.601Z,0.40
2019-03-09T09:51:27.970Z,0.30
2019-03-09T09:54:16.168Z,0.30
2019-03-09T09:56:45.485Z,0.30
2019-03-09T09:59:15.076Z,0.30
2019-03-09T10:02:03.432Z,0.30
2019-03-09T10:04:32.705Z,0.30
2019-03-09T10:07:02.040Z,0.30
2019-03-09T10:09:31.343Z,0.33
2019-03-09T10:12:00.905Z,0.53
2019-03-09T10:14:30.176Z,0.30
2019-03-09T10:16:59.446Z,0.30
2019-03-09T10:19:28.808Z,0.50
2019-03-09T10:21:58.204Z,0.33
2019-03-09T10:24:27.481Z,0.20
2019-03-09T10:26:57.139Z,1.07
2019-03-09T10:29:26.411Z,0.50
2019-03-09T10:31:55.883Z,0.57
2019-03-09T10:34:25.219Z,0.20
2019-03-09T10:37:13.469Z,0.83
2019-03-09T10:39:42.963Z,0.20
2019-03-09T10:42:12.230Z,1.83
2019-03-09T10:44:41.816Z,0.53
2019-03-09T10:47:11.102Z,1.93
2019-03-09T10:49:40.661Z,1.37
2019-03-09T10:52:10.001Z,3.63
2019-03-09T10:54:39.301Z,4.43
2019-03-09T10:57:08.580Z,3.93
2019-03-09T10:59:38.004Z,1.23
2019-03-09T11:02:07.396Z,6.43
2019-03-09T11:04:36.890Z,4.43
2019-03-09T11:09:41.169Z,5.87
2019-03-09T11:12:10.564Z,5.73
2019-03-09T11:14:39.847Z,1.50
2019-03-09T11:17:09.353Z,4.17
2019-03-09T11:19:38.634Z,0.33
2019-03-09T11:22:07.985Z,3.33
2019-03-09T11:24:37.259Z,2.83
2019-03-09T11:27:06.576Z,2.33
2019-03-09T11:29:35.894Z,1.20
2019-03-09T11:32:05.204Z,3.17
2019-03-09T11:34:34.485Z,2.67
2019-03-09T11:37:22.819Z,1.57
2019-03-09T11:43:06.277Z,1.43
2019-03-09T11:45:35.546Z,6.80
2019-03-09T11:53:15.691Z,2.33
2019-03-09T11:55:44.993Z,4.43
2019-03-09T11:58:14.316Z,0.67
2019-03-09T12:03:33.509Z,0.57
2019-03-09T12:06:03.046Z,2.43
2019-03-09T12:08:32.368Z,3.00
2019-03-09T12:11:01.864Z,0.97
2019-03-09T12:13:31.110Z,3.03
2019-03-09T12:16:00.504Z,1.77
2019-03-09T12:18:29.765Z,5.53
2019-03-09T12:20:59.280Z,3.10
2019-03-09T12:23:28.581Z,3.27
2019-03-09T12:25:58.053Z,7.73
2019-03-09T12:28:46.317Z,2.77
2019-03-09T12:31:15.689Z,7.60
2019-03-09T12:33:45.436Z,3.20
2019-03-09T12:36:14.741Z,4.87
2019-03-09T12:38:44.071Z,8.10
2019-03-09T12:41:13.446Z,3.87
2019-03-09T12:43:42.736Z,7.93
2019-03-09T12:46:12.008Z,9.93
2019-03-09T12:48:41.426Z,13.87
2019-03-09T12:51:10.796Z,9.37
2019-03-09T12:53:40.646Z,9.60
2019-03-09T12:56:09.933Z,12.37
2019-03-09T12:58:39.334Z,12.07
2019-03-09T13:01:27.568Z,7.43
2019-03-09T13:03:56.865Z,11.10
2019-03-09T13:06:26.308Z,6.73
2019-03-09T13:08:55.601Z,13.70
2019-03-09T13:11:25.290Z,8.63
2019-03-09T13:14:13.690Z,9.57
2019-03-09T13:16:42.981Z,7.63
2019-03-09T13:19:12.265Z,8.90
2019-03-09T13:21:41.547Z,11.87
2019-03-09T13:24:10.905Z,16.07
2019-03-09T13:26:40.170Z,17.30
2019-03-09T13:29:09.495Z,13.27
2019-03-09T13:31:38.762Z,10.63
2019-03-09T13:34:27.144Z,13.87
2019-03-09T13:36:56.814Z,16.40
2019-03-09T13:39:26.131Z,14.30
2019-03-09T13:41:55.541Z,10.40
2019-03-09T13:44:24.832Z,12.67
2019-03-09T13:46:54.421Z,7.20
2019-03-09T13:49:23.726Z,10.00
2019-03-09T13:51:53.307Z,14.30
2019-03-09T13:54:22.597Z,11.60
2019-03-09T13:56:52.114Z,9.87
2019-03-09T13:59:21.430Z,11.20
2019-03-09T14:01:50.985Z,8.90
2019-03-09T14:04:20.298Z,14.73
2019-03-09T14:06:49.613Z,11.13
2019-03-09T14:09:18.988Z,8.30
2019-03-09T14:11:48.431Z,8.70
2019-03-09T14:14:17.754Z,10.60
2019-03-09T14:16:47.091Z,11.53
2019-03-09T14:19:16.429Z,9.77
2019-03-09T14:21:45.698Z,5.97
2019-03-09T14:24:15.049Z,7.90
2019-03-09T14:26:44.414Z,11.13
2019-03-09T14:29:14.031Z,9.17
2019-03-09T14:31:43.313Z,3.10
2019-03-09T14:34:12.981Z,5.60
2019-03-09T14:36:42.273Z,9.60
2019-03-09T14:42:00.360Z,10.13
2019-03-09T14:44:29.662Z,15.57
2019-03-09T14:46:59.263Z,15.80
2019-03-09T14:49:28.615Z,12.83
2019-03-09T14:51:58.109Z,12.30
2019-03-09T14:54:46.599Z,21.23
2019-03-09T14:57:15.863Z,14.57
2019-03-09T14:59:45.246Z,15.63
2019-03-09T15:02:14.529Z,11.57
2019-03-09T15:04:44.164Z,9.33
2019-03-09T15:07:13.509Z,14.07
2019-03-09T15:09:43.284Z,13.40
2019-03-09T15:12:12.587Z,10.10
2019-03-09T15:14:42.549Z,19.10
2019-03-09T15:17:11.813Z,18.30
2019-03-09T15:22:16.506Z,18.37
2019-03-09T15:24:45.805Z,13.23
2019-03-09T15:27:15.344Z,15.40
2019-03-09T15:29:44.627Z,15.27
2019-03-09T15:32:14.182Z,15.63
2019-03-09T15:35:02.668Z,16.37
2019-03-09T15:40:25.985Z,8.80
2019-03-09T15:42:55.281Z,23.03
2019-03-09T15:45:24.858Z,17.80
2019-03-09T15:47:54.153Z,20.10
2019-03-09T15:50:42.524Z,9.70
2019-03-09T15:53:12.098Z,13.13
2019-03-09T15:55:41.590Z,20.87
2019-03-09T15:58:11.503Z,10.33
2019-03-09T16:00:40.940Z,8.53
2019-03-09T16:03:10.429Z,8.57
2019-03-09T16:05:39.677Z,8.40
2019-03-09T16:08:09.349Z,7.90
2019-03-09T16:10:38.630Z,12.60
2019-03-09T16:15:43.601Z,15.63
2019-03-09T16:20:47.592Z,13.30
2019-03-09T16:23:17.205Z,9.50
2019-03-09T16:26:05.775Z,14.10
2019-03-09T16:28:35.088Z,13.43
2019-03-09T16:31:04.657Z,12.23
2019-03-09T16:33:33.944Z,12.03
2019-03-09T16:36:03.446Z,15.30
2019-03-09T16:38:32.800Z,16.03
2019-03-09T16:41:02.144Z,12.57
2019-03-09T16:43:31.387Z,10.90
2019-03-09T16:46:00.683Z,10.27
2019-03-09T16:48:30.387Z,8.57
2019-03-09T16:50:59.756Z,13.57
2019-03-09T16:53:29.067Z,13.70
2019-03-09T16:55:58.351Z,8.13
2019-03-09T16:58:27.967Z,8.03
2019-03-09T17:00:57.253Z,16.40
2019-03-09T17:03:26.748Z,7.17
2019-03-09T17:05:56.098Z,10.63
2019-03-09T17:08:25.519Z,7.83
2019-03-09T17:10:54.809Z,9.07
2019-03-09T17:13:24.333Z,4.60
2019-03-09T17:15:53.641Z,5.83
2019-03-09T17:18:23.384Z,8.47
2019-03-09T17:20:52.704Z,8.70
2019-03-09T17:23:22.278Z,6.70
2019-03-09T17:25:51.580Z,11.73
2019-03-09T17:28:59.762Z,8.07
2019-03-09T17:31:29.053Z,8.60
2019-03-09T17:34:17.363Z,14.53
2019-03-09T17:36:46.936Z,14.17
2019-03-09T17:39:16.243Z,15.77
2019-03-09T17:41:45.722Z,5.70
2019-03-09T17:44:15.017Z,7.77
2019-03-09T17:46:44.327Z,3.43
2019-03-09T17:49:13.673Z,7.90
2019-03-09T17:51:43.198Z,7.40
2019-03-09T17:54:31.544Z,9.73
2019-03-09T17:57:00.988Z,10.20
2019-03-09T17:59:30.296Z,15.40
2019-03-09T18:01:59.791Z,7.00
2019-03-09T18:04:29.128Z,7.70
2019-03-09T18:06:58.433Z,14.93
2019-03-09T18:09:27.823Z,6.33
2019-03-09T18:11:57.109Z,9.07
2019-03-09T18:14:26.618Z,17.60
2019-03-09T18:16:55.944Z,18.93
2019-03-09T18:19:25.460Z,18.23
2019-03-09T18:21:54.793Z,14.20
2019-03-09T18:24:24.315Z,8.40
2019-03-09T18:26:53.653Z,17.50
2019-03-09T18:29:23.200Z,11.77
2019-03-09T18:31:52.550Z,26.83
2019-03-09T18:34:22.496Z,12.87
2019-03-09T18:36:51.793Z,14.90
2019-03-09T18:39:21.337Z,17.63
2019-03-09T18:41:50.817Z,12.10
2019-03-09T18:44:20.135Z,9.07
2019-03-09T18:46:49.425Z,10.37
2019-03-09T18:49:18.956Z,12.37
2019-03-09T18:51:48.306Z,13.33
2019-03-09T18:54:17.622Z,8.43
2019-03-09T18:56:47.061Z,13.00
2019-03-09T18:59:16.483Z,13.40
2019-03-09T19:01:45.881Z,15.90
2019-03-09T19:04:15.244Z,10.00
2019-03-09T19:06:44.567Z,8.23
2019-03-09T19:09:13.902Z,14.73
2019-03-09T19:11:43.217Z,13.23
2019-03-09T19:14:31.592Z,7.40
2019-03-09T19:17:00.923Z,9.30
2019-03-09T19:19:30.224Z,9.43
2019-03-09T19:21:59.569Z,8.27
2019-03-09T19:24:28.896Z,16.10
2019-03-09T19:29:32.947Z,9.73
2019-03-09T19:32:02.302Z,13.77
2019-03-09T19:34:31.779Z,13.57
2019-03-09T19:37:01.061Z,12.00
2019-03-09T19:39:30.363Z,14.00
2019-03-09T19:41:59.671Z,14.80
2019-03-09T19:44:29.100Z,14.47
2019-03-09T19:46:58.402Z,13.43
2019-03-09T19:49:46.718Z,14.80
2019-03-09T19:52:16.167Z,7.80
2019-03-09T19:54:45.558Z,5.50
2019-03-09T19:57:15.016Z,7.30
2019-03-09T19:59:44.360Z,10.73
2019-03-09T20:02:13.644Z,5.97
2019-03-09T20:04:43.197Z,6.33
2019-03-09T20:07:12.560Z,5.43
2019-03-09T20:09:41.967Z,5.93
2019-03-09T20:12:11.328Z,4.30
2019-03-09T20:14:40.908Z,3.80
2019-03-09T20:17:10.217Z,3.67
2019-03-09T20:19:39.884Z,4.50
2019-03-09T20:22:09.170Z,6.50
2019-03-09T20:24:38.713Z,7.23
2019-03-09T20:27:07.991Z,3.90
2019-03-09T20:29:37.294Z,6.60
2019-03-09T20:32:25.933Z,6.50
2019-03-09T20:34:55.213Z,2.30
2019-03-09T20:37:24.968Z,4.77
2019-03-09T20:39:54.245Z,7.30
2019-03-09T20:42:42.602Z,5.93
2019-03-09T20:45:14.744Z,4.47
2019-03-09T20:47:44.353Z,4.47
2019-03-09T20:50:14.442Z,5.33
2019-03-09T20:52:44.180Z,5.10
2019-03-09T20:55:13.509Z,2.90
2019-03-09T20:57:43.268Z,11.30
2019-03-09T21:00:14.718Z,7.83
2019-03-09T21:02:44.454Z,3.50
2019-03-09T21:05:13.798Z,3.43
2019-03-09T21:07:43.301Z,7.40
2019-03-09T21:10:13.783Z,3.10
2019-03-09T21:13:03.107Z,4.67
2019-03-09T21:15:32.413Z,7.10
2019-03-09T21:18:01.798Z,3.17
2019-03-09T21:20:31.113Z,3.60
2019-03-09T21:23:00.632Z,6.97
2019-03-09T21:25:29.924Z,2.63
2019-03-09T21:27:59.347Z,2.43
2019-03-09T21:30:28.637Z,6.57
2019-03-09T21:32:58.078Z,2.10
2019-03-09T21:35:27.379Z,3.60
2019-03-09T21:37:56.838Z,8.17
2019-03-09T21:40:26.131Z,2.00
2019-03-09T21:42:55.613Z,2.63
2019-03-09T21:45:24.920Z,2.73
2019-03-09T21:47:54.284Z,1.60
2019-03-09T21:50:42.588Z,2.93
2019-03-09T21:53:11.861Z,1.30
2019-03-09T21:55:41.289Z,2.53
2019-03-09T21:58:10.575Z,5.53
2019-03-09T22:00:40.004Z,4.17
2019-03-09T22:03:21.089Z,3.43
2019-03-09T22:05:50.414Z,2.70
2019-03-09T22:08:19.782Z,4.43
2019-03-09T22:10:49.064Z,4.27
2019-03-09T22:13:18.664Z,1.10
2019-03-09T22:15:48.277Z,2.73
2019-03-09T22:18:17.582Z,2.97
2019-03-09T22:20:47.137Z,2.90
2019-03-09T22:23:16.422Z,2.57
2019-03-09T22:25:45.831Z,4.77
2019-03-09T22:28:15.160Z,5.67
2019-03-09T22:30:44.465Z,3.03
2019-03-09T22:33:33.039Z,2.47
2019-03-09T22:36:02.362Z,3.80
2019-03-09T22:38:31.867Z,1.87
2019-03-09T22:41:01.146Z,4.67
2019-03-09T22:43:30.542Z,7.93
2019-03-09T22:45:59.848Z,4.03
2019-03-09T22:48:29.180Z,5.50
2019-03-09T22:50:58.564Z,2.33
2019-03-09T22:53:27.930Z,5.77
2019-03-09T22:58:45.470Z,2.60
2019-03-09T23:01:15.479Z,3.00
2019-03-09T23:04:04.041Z,4.77
2019-03-09T23:06:33.323Z,4.57
2019-03-09T23:09:03.388Z,3.87
2019-03-09T23:11:32.678Z,3.27
2019-03-09T23:14:02.263Z,0.50
2019-03-09T23:16:50.477Z,1.83
2019-03-09T23:19:19.788Z,3.93
2019-03-09T23:21:49.177Z,5.33
2019-03-09T23:24:18.747Z,5.00
2019-03-09T23:26:48.281Z,4.80
2019-03-09T23:29:37.076Z,6.50
2019-03-09T23:32:06.360Z,2.20
2019-03-09T23:34:54.696Z,5.80
2019-03-09T23:37:24.113Z,6.37
2019-03-09T23:40:32.741Z,2.03
2019-03-09T23:43:02.195Z,5.30
2019-03-09T23:45:31.478Z,2.90
2019-03-09T23:48:01.282Z,1.70
2019-03-09T23:53:18.801Z,5.33
2019-03-09T23:55:48.285Z,5.20
2019-03-09T23:58:36.469Z,4.87
